INFORMACIÓN METAR y TAF
METAR FOR EFIV
ADDS - METARS form results

(1227 UTC 17 February 2019)
Data provider http://aviationweather.gov/metar/data/
 
METAR text: EFIV 171220Z 33010KT 9999 FEW020 M05/M11 Q1011
Conditions at: EFIV (IVALO , FI) observed 1220 UTC 17 February 2019
Temperature: -5.0°C (23°F)
Dewpoint: -11.0°C (12°F) [RH = 63%]
Pressure (altimeter): 29.85 inches Hg (1011.0 mb)
Winds: from the NNW (330 degrees) at 12 MPH (10 knots; 5.1 m/s)
Visibility: 6 or more miles (10+ km)
Ceiling: at least 12,000 feet AGL
Clouds: few clouds at 2000 feet AGL
Weather: no significant weather observed at this time

METAR text: EFIV 171150Z 34012KT 300V360 9999 FEW026 M05/M11 Q1010
Conditions at: EFIV (IVALO , FI) observed 1150 UTC 17 February 2019
Temperature: -5.0°C (23°F)
Dewpoint: -11.0°C (12°F) [RH = 63%]
Pressure (altimeter): 29.82 inches Hg (1010.0 mb)
Winds: from the NNW (340 degrees) at 14 MPH (12 knots; 6.2 m/s)
Visibility: 6 or more miles (10+ km)
Ceiling: at least 12,000 feet AGL
Clouds: few clouds at 2600 feet AGL
Weather: no significant weather observed at this time

Forecast for: EFIV (IVALO , FI)
Text: TAF EFIV 171128Z 1712/1721 32012KT 9999 SCT035
Forecast period: 1200 to 2100 UTC 17 February 2019
Forecast type: FROM: standard forecast or significant change
Winds: from the NW (320 degrees) at 14 MPH (12 knots; 6.2 m/s)
Visibility: 6 or more miles 10+ km)
Ceiling: at least 12,000 feet AGL
Clouds: scattered clouds at 3500 feet AGL
Weather: no significant weather forecast for this period
Text: PROB40 1712/1713 33015G25KT
Forecast period: 1200 to 1300 UTC 17 February 2019
Forecast type: PROBABLE: 40 percent likelihood of the following during this time
Winds: from the NNW (330 degrees) at 17 MPH (15 knots; 7.7 m/s)
gusting to 29 MPH (25 knots; 12.9 m/s)
Visibility: missing
Ceiling: unknown
Clouds: missing
Weather: no significant weather forecast for this period

 MAPA DE AEROPUERTO

 INFORMACIÓN DE PISTA
Pista 04 Longitud 8199 ft Ancho 148 ft
Elevación 480 ft Umbral desplazado 0 ft Rumbo de pista 47
Pista 22 Longitud 8199 ft Ancho 148 ft
Elevación 463 ft Umbral desplazado 0 ft Rumbo de pista 227
Pista 08 Longitud 2625 ft Ancho 148 ft
Elevación 475 ft Umbral desplazado 0 ft Rumbo de pista 92
Pista 26 Longitud 2625 ft Ancho 148 ft
Elevación 468 ft Umbral desplazado 0 ft Rumbo de pista 272

 FRECUANCIAS DEL AEROPUERTO
Tipo ATIS Nombre ATIS Frecuencia 123.2 MHZ
Tipo TWR Nombre TWR Frecuencia 118 MHZ

 RADIO AYUDAS DEL AEROPUERTO
Tipo NDB Nombre Akujarvi Frecuencia 432 KHZ



Powered by Virtual Airlines Manager [v2.6.2]